Terminal Aerodrome Forecast
Issued by NWS

Home | Current Version | Previous Version | Text Only | Print | Product List | Glossary On
Versions: 1 2 3 4 5 6 7 8 9 10 11 12 13 14 15 16 17 18 19 20 21 22 23 24 25 26 27
495
FTUS46 KSEW 260301 AAA
TAFSEA
TAF AMD
KSEA 260301Z 2603/2706 21007KT P6SM BKN050
     FM260400 18008KT P6SM OVC040
     FM260700 18010KT 5SM -RASN BR OVC030
     FM261100 16006KT 4SM -SN BR OVC015
      TEMPO 2612/2616 2SM -SN BR OVC010
     FM261900 VRB04KT P6SM VCSH BKN030
     FM262100 36007KT P6SM SCT040=

USA.gov is the U.S. government's official web portal to all federal, state and local government web resources and services.